CDT,Max TemperatureF,Mean TemperatureF,Min TemperatureF,Max Dew PointF,MeanDew PointF,Min DewpointF,Max Humidity, Mean Humidity, Min Humidity, Max Sea Level PressureIn, Mean Sea Level PressureIn, Min Sea Level PressureIn, Max VisibilityMiles, Mean VisibilityMiles, Min VisibilityMiles, Max Wind SpeedMPH, Mean Wind SpeedMPH, Max Gust SpeedMPH,PrecipitationIn, CloudCover, Events, WindDirDegrees
2014-4-1,33,25,17,21,17,10,93,72,56,30.13,30.06,29.91,10,10,6,32,19,44,0.00,1,,308
2014-4-2,46,35,24,34,25,19,100,68,40,30.13,30.01,29.89,10,10,9,23,10,26,0.00,4,,62
2014-4-3,37,34,32,36,33,30,100,95,87,29.92,29.86,29.80,10,6,1,22,12,30,0.15,8,,5
2014-4-4,42,36,30,30,28,25,93,77,53,30.12,30.03,29.89,10,10,5,32,20,37,0.06,6,,312
2014-4-5,60,43,26,36,30,23,93,64,34,30.09,29.97,29.85,10,10,10,28,10,37,0.00,0,,149
2014-4-6,64,50,37,48,37,30,81,56,40,29.90,29.84,29.74,10,10,9,18,9,24,0.00,1,Thunderstorm,226
2014-4-7,60,48,35,43,34,28,87,62,31,29.98,29.87,29.79,10,10,10,29,12,34,0.00,1,,316
2014-4-8,55,44,32,34,27,19,100,57,25,30.13,30.05,29.98,10,10,6,20,12,28,0.00,1,,313
2014-4-9,80,60,41,37,28,21,53,32,15,29.99,29.75,29.57,10,10,10,24,10,24,0.00,0,,208
2014-4-10,64,54,44,37,28,16,76,40,15,29.98,29.91,29.66,10,10,10,25,14,32,0.00,1,,313
2014-4-11,73,60,46,41,33,23,71,39,16,29.99,29.90,29.71,10,10,10,17,9,20,0.00,0,,208
2014-4-12,77,62,48,46,39,34,76,43,25,29.72,29.63,29.59,10,9,3,22,10,26,0.00,0,Thunderstorm,4
2014-4-13,51,42,30,41,30,19,93,69,48,30.10,29.91,29.72,10,10,9,31,21,41,0.00,4,,346
2014-4-14,39,31,23,19,12,5,69,48,26,30.23,30.17,30.11,10,10,10,28,17,33,0.00,1,,324
2014-4-15,53,34,14,28,20,9,93,59,34,30.20,30.01,29.70,10,10,9,25,10,33,0.00,0,,131
2014-4-16,60,45,30,36,28,23,100,60,35,30.17,29.76,29.57,10,10,4,36,18,43,0.03,5,,230
2014-4-17,48,34,21,27,23,19,93,61,34,30.36,30.28,30.19,10,10,10,17,10,23,0.00,2,,13
2014-4-18,68,49,30,39,33,25,86,53,35,30.24,30.09,29.92,10,10,8,30,14,39,0.00,0,,131
2014-4-19,69,61,53,46,41,34,63,48,33,30.02,29.97,29.90,10,10,8,20,13,29,0.00,0,,259
2014-4-20,78,61,44,54,44,34,71,49,36,30.01,29.94,29.85,10,10,6,13,6,17,0.00,0,,81
2014-4-21,71,60,48,54,35,25,72,43,18,30.16,30.06,29.88,10,10,10,29,14,41,0.00,0,Thunderstorm,325
2014-4-22,66,50,35,34,30,28,81,45,24,30.18,30.06,29.91,10,10,5,21,7,29,0.00,1,,122
2014-4-23,69,60,50,45,38,30,76,49,36,29.91,29.72,29.56,10,10,9,37,20,47,0.00,1,,122
2014-4-24,69,58,46,48,38,21,100,60,16,29.80,29.72,29.64,10,9,4,29,11,41,0.09,2,,317
2014-4-25,73,55,37,34,28,25,75,36,16,29.84,29.80,29.76,10,10,8,7,3,,0.00,1,,77
2014-4-26,73,60,46,46,40,30,71,47,33,29.79,29.65,29.48,10,10,9,30,15,45,0.00,0,,86
2014-4-27,64,58,51,54,47,41,88,69,52,29.49,29.36,29.27,10,10,10,30,18,38,0.00,,Thunderstorm,96
2014-4-28,60,52,44,55,49,43,100,90,82,29.56,29.35,29.25,10,9,3,26,17,31,0.62,,Thunderstorm,62
2014-4-29,44,40,35,43,38,34,100,89,76,29.93,29.75,29.56,10,8,2,23,16,30,0.44,,,350
2014-4-30,42,40,37,39,36,30,87,80,70,29.98,29.95,29.91,10,10,7,30,18,38,0.00,,,316